Time;durP1;ratioP1;P1;durP2;ratioP2;P2;SDS_P1;SDS_P2;PMS_P1;PMS_P2;Temp;Humidity;BMP_temperature;BMP_pressure;BME280_temperature;BME280_humidity;BME280_pressure;Samples;Min_cycle;Max_cycle;Signal;HPM_P1;HPM_P2
2021/12/18 00:01:16;;;;;;;;;;;21.50;42.30;;;;;;5137862;27;19920;-60
2021/12/18 00:03:42;;;;;;;;;;;21.50;42.30;;;;;;5138151;27;20362;-60
2021/12/18 00:06:08;;;;;;;;;;;21.50;42.30;;;;;;5119324;27;20024;-60
2021/12/18 00:08:34;;;;;;;;;;;21.50;42.30;;;;;;5137712;27;19988;-60
2021/12/18 00:11:00;;;;;;;;;;;21.50;42.30;;;;;;5137790;27;20063;-60
2021/12/18 00:13:25;;;;;;;;;;;21.50;42.30;;;;;;5119051;27;19915;-60
2021/12/18 00:15:51;;;;;;;;;;;21.50;42.30;;;;;;5137496;27;19907;-60
2021/12/18 00:18:17;;;;;;;;;;;21.50;42.30;;;;;;5137627;27;20378;-60
2021/12/18 00:20:42;;;;;;;;;;;21.50;42.30;;;;;;5137339;27;19912;-61
2021/12/18 00:23:08;;;;;;;;;;;21.50;42.30;;;;;;5137376;27;19927;-60
2021/12/18 00:25:33;;;;;;;;;;;21.50;42.30;;;;;;5137296;27;19908;-60
2021/12/18 00:27:59;;;;;;;;;;;21.50;42.40;;;;;;5137353;27;19916;-60
2021/12/18 00:30:26;;;;;;;;;;;21.50;42.40;;;;;;5119120;27;20255;-60
2021/12/18 00:32:51;;;;;;;;;;;21.50;42.30;;;;;;5137170;27;20010;-60
2021/12/18 00:35:17;;;;;;;;;;;21.40;42.30;;;;;;5137138;27;20334;-60
2021/12/18 00:37:43;;;;;;;;;;;21.50;42.30;;;;;;5118642;27;19911;-60
2021/12/18 00:40:16;;;;;;;;;;;21.50;42.30;;;;;;5136887;27;19992;-60
2021/12/18 00:42:48;;;;;;;;;;;21.40;42.30;;;;;;5137064;27;19907;-60
2021/12/18 00:45:14;;;;;;;;;;;21.40;42.30;;;;;;5137073;27;20315;-60
2021/12/18 00:47:40;;;;;;;;;;;21.40;42.30;;;;;;5137226;27;20002;-60
2021/12/18 00:50:06;;;;;;;;;;;21.40;42.40;;;;;;5137050;27;19956;-60
2021/12/18 00:52:32;;;;;;;;;;;21.40;42.40;;;;;;5136907;27;19907;-60
2021/12/18 00:54:57;;;;;;;;;;;21.40;42.30;;;;;;5136789;27;19914;-60
2021/12/18 00:57:23;;;;;;;;;;;21.40;42.40;;;;;;5136990;27;19907;-61
2021/12/18 00:59:51;;;;;;;;;;;21.40;42.30;;;;;;5136681;27;19919;-60
2021/12/18 01:02:16;;;;;;;;;;;21.40;42.30;;;;;;5136753;27;19914;-60
2021/12/18 01:04:42;;;;;;;;;;;21.40;42.30;;;;;;5136881;27;19998;-60
2021/12/18 01:07:07;;;;;;;;;;;21.40;42.30;;;;;;5136503;27;19949;-60
2021/12/18 01:10:28;;;;;;;;;;;21.40;42.30;;;;;;5135648;27;19911;-60
2021/12/18 01:12:28;;;;;;;;;;;21.40;42.40;;;;;;5127948;27;19914;-60
2021/12/18 01:25:09;;;;;;;;;;;21.30;42.40;;;;;;5136252;27;20262;-60
2021/12/18 01:27:34;;;;;;;;;;;21.40;42.40;;;;;;5136129;27;19914;-60
2021/12/18 01:30:00;;;;;;;;;;;21.40;42.40;;;;;;5136028;27;19915;-60
2021/12/18 01:32:27;;;;;;;;;;;21.30;42.40;;;;;;5135827;27;20002;-60
2021/12/18 01:34:53;;;;;;;;;;;21.30;42.40;;;;;;5135968;27;19915;-60
2021/12/18 01:37:20;;;;;;;;;;;21.30;42.40;;;;;;5117487;27;20050;-60
2021/12/18 01:39:46;;;;;;;;;;;21.30;42.40;;;;;;5117443;27;20382;-60
2021/12/18 01:52:53;;;;;;;;;;;21.30;42.50;;;;;;5135833;27;19930;-60
2021/12/18 01:55:26;;;;;;;;;;;21.30;42.40;;;;;;5135549;27;20394;-60
2021/12/18 01:57:51;;;;;;;;;;;21.30;42.40;;;;;;5135884;27;19960;-60
2021/12/18 02:00:18;;;;;;;;;;;21.30;42.50;;;;;;5135198;27;19920;-60
2021/12/18 02:02:43;;;;;;;;;;;21.30;42.50;;;;;;5135521;27;20116;-60
2021/12/18 02:05:10;;;;;;;;;;;21.20;42.50;;;;;;5116974;27;19907;-61
2021/12/18 02:07:35;;;;;;;;;;;21.20;42.50;;;;;;5135282;27;19908;-61
2021/12/18 02:10:08;;;;;;;;;;;21.30;42.50;;;;;;5135475;27;20378;-60
2021/12/18 02:12:49;;;;;;;;;;;21.30;42.50;;;;;;5135291;27;19907;-60
2021/12/18 02:20:48;;;;;;;;;;;21.20;42.50;;;;;;5135203;27;19922;-60
2021/12/18 02:23:14;;;;;;;;;;;21.30;42.50;;;;;;5135185;27;19908;-60
2021/12/18 02:25:39;;;;;;;;;;;21.30;42.50;;;;;;5135106;27;20377;-61
2021/12/18 02:28:15;;;;;;;;;;;21.20;42.50;;;;;;5134983;27;19907;-60
2021/12/18 02:30:41;;;;;;;;;;;21.20;42.50;;;;;;5134913;27;19934;-60
2021/12/18 02:33:07;;;;;;;;;;;21.20;42.50;;;;;;5116505;27;19919;-60
2021/12/18 02:35:40;;;;;;;;;;;21.20;42.60;;;;;;5135252;27;19911;-60
2021/12/18 02:38:10;;;;;;;;;;;21.20;42.60;;;;;;5135016;27;19908;-61
2021/12/18 02:43:10;;;;;;;;;;;21.20;42.60;;;;;;5134971;27;19911;-60
2021/12/18 02:45:35;;;;;;;;;;;21.20;42.60;;;;;;5134829;27;19957;-60
2021/12/18 02:48:00;;;;;;;;;;;21.20;42.60;;;;;;5134901;27;20381;-60
2021/12/18 02:50:26;;;;;;;;;;;21.20;42.60;;;;;;5134723;27;20378;-61
2021/12/18 02:52:51;;;;;;;;;;;21.20;42.70;;;;;;5134742;27;20308;-60
2021/12/18 02:55:17;;;;;;;;;;;21.20;42.60;;;;;;5135097;27;19946;-60
2021/12/18 02:57:42;;;;;;;;;;;21.20;42.60;;;;;;5134740;27;19908;-60
2021/12/18 03:00:08;;;;;;;;;;;21.20;42.60;;;;;;5134433;27;19919;-60
2021/12/18 03:02:39;;;;;;;;;;;21.20;42.60;;;;;;5134470;27;19998;-60
2021/12/18 03:05:07;;;;;;;;;;;21.20;42.60;;;;;;5134583;27;20362;-60
2021/12/18 03:07:35;;;;;;;;;;;21.20;42.60;;;;;;5134469;27;21940;-60
2021/12/18 03:21:54;;;;;;;;;;;21.10;42.70;;;;;;5134806;28;19923;-60
2021/12/18 03:23:57;;;;;;;;;;;21.10;42.70;;;;;;5134095;28;20423;-58
2021/12/18 03:26:23;;;;;;;;;;;21.10;42.70;;;;;;5134376;28;19914;-61
2021/12/18 03:28:48;;;;;;;;;;;21.10;42.70;;;;;;5115953;28;20274;-60
2021/12/18 03:31:14;;;;;;;;;;;21.10;42.70;;;;;;5134266;27;20339;-60
2021/12/18 03:33:39;;;;;;;;;;;21.10;42.70;;;;;;5138414;27;20323;-60
2021/12/18 03:36:05;;;;;;;;;;;21.10;42.70;;;;;;5138699;27;19907;-60
2021/12/18 03:38:31;;;;;;;;;;;21.10;42.70;;;;;;5119971;27;19959;-60
2021/12/18 03:40:56;;;;;;;;;;;21.10;42.70;;;;;;5138408;27;19950;-60
2021/12/18 03:43:22;;;;;;;;;;;21.10;42.70;;;;;;5120031;27;19908;-60
2021/12/18 03:45:47;;;;;;;;;;;21.10;42.70;;;;;;5138262;27;19961;-60
2021/12/18 03:48:13;;;;;;;;;;;21.10;42.70;;;;;;5138331;27;19961;-61
2021/12/18 03:50:38;;;;;;;;;;;21.10;42.70;;;;;;5138457;27;20010;-60
2021/12/18 03:53:04;;;;;;;;;;;21.10;42.70;;;;;;5138210;27;19914;-60
2021/12/18 03:55:29;;;;;;;;;;;21.10;42.70;;;;;;5119776;27;20321;-60
2021/12/18 03:57:55;;;;;;;;;;;21.10;42.70;;;;;;5119744;27;19908;-60
2021/12/18 04:00:20;;;;;;;;;;;21.10;42.80;;;;;;5137654;27;20426;-60
2021/12/18 04:02:46;;;;;;;;;;;21.10;42.80;;;;;;5119574;27;19911;-61
2021/12/18 04:05:12;;;;;;;;;;;21.10;42.80;;;;;;5137950;27;20373;-60
2021/12/18 04:07:44;;;;;;;;;;;21.10;42.80;;;;;;5137955;27;19995;-60
2021/12/18 04:10:10;;;;;;;;;;;21.10;42.80;;;;;;5137891;27;20362;-61
2021/12/18 04:12:35;;;;;;;;;;;21.10;42.80;;;;;;5119259;27;20385;-60
2021/12/18 04:15:01;;;;;;;;;;;21.10;42.80;;;;;;5137740;27;19911;-60
2021/12/18 04:17:26;;;;;;;;;;;21.10;42.70;;;;;;5137566;27;19999;-60
2021/12/18 04:19:52;;;;;;;;;;;21.00;42.80;;;;;;5137622;27;19916;-60
2021/12/18 04:22:17;;;;;;;;;;;21.10;42.80;;;;;;5137632;27;19907;-60
2021/12/18 04:24:43;;;;;;;;;;;21.10;42.80;;;;;;5137559;27;20002;-60
2021/12/18 04:27:08;;;;;;;;;;;21.00;42.80;;;;;;5137577;27;19984;-60
2021/12/18 04:29:33;;;;;;;;;;;21.10;42.80;;;;;;5137460;27;19911;-60
2021/12/18 04:31:59;;;;;;;;;;;21.00;42.80;;;;;;5137461;27;20002;-60
2021/12/18 04:34:24;;;;;;;;;;;21.00;42.80;;;;;;5137530;27;19943;-60
2021/12/18 04:36:50;;;;;;;;;;;21.10;42.80;;;;;;5137354;27;20366;-60
2021/12/18 04:39:15;;;;;;;;;;;21.00;42.80;;;;;;5118863;27;20374;-60
2021/12/18 04:41:47;;;;;;;;;;;21.10;42.80;;;;;;5137231;27;19911;-60
2021/12/18 04:44:13;;;;;;;;;;;21.10;42.80;;;;;;5135969;27;19914;-59
2021/12/18 04:46:38;;;;;;;;;;;21.00;42.90;;;;;;5137105;27;19911;-59
2021/12/18 04:49:04;;;;;;;;;;;21.00;42.80;;;;;;5137167;27;19939;-60
2021/12/18 04:51:29;;;;;;;;;;;21.00;42.80;;;;;;5137053;27;19922;-60
2021/12/18 04:53:55;;;;;;;;;;;21.00;42.90;;;;;;5137004;27;20282;-60
2021/12/18 04:56:20;;;;;;;;;;;21.00;42.90;;;;;;5137061;27;19912;-59
2021/12/18 04:58:46;;;;;;;;;;;21.00;42.90;;;;;;5136833;27;20324;-60
2021/12/18 05:01:11;;;;;;;;;;;21.00;42.90;;;;;;5136694;27;19980;-60
2021/12/18 05:03:39;;;;;;;;;;;21.00;42.90;;;;;;5136850;27;19964;-60
2021/12/18 05:06:04;;;;;;;;;;;21.00;42.90;;;;;;5136753;27;19908;-60
2021/12/18 05:08:30;;;;;;;;;;;21.00;42.90;;;;;;5136996;27;19907;-60
2021/12/18 05:10:55;;;;;;;;;;;21.00;42.90;;;;;;5136729;27;19907;-60
2021/12/18 05:13:21;;;;;;;;;;;21.10;42.90;;;;;;5118181;27;20372;-60
2021/12/18 05:15:46;;;;;;;;;;;21.00;42.90;;;;;;5136775;27;19949;-60
2021/12/18 05:18:12;;;;;;;;;;;21.10;42.90;;;;;;5136508;27;19915;-59
2021/12/18 05:20:37;;;;;;;;;;;21.00;42.80;;;;;;5136475;27;19954;-60
2021/12/18 05:23:03;;;;;;;;;;;21.10;42.80;;;;;;5118101;27;19907;-60
2021/12/18 05:25:29;;;;;;;;;;;21.10;42.80;;;;;;5136380;27;19998;-60
2021/12/18 05:27:54;;;;;;;;;;;21.10;42.80;;;;;;5136357;27;19908;-60
2021/12/18 05:30:19;;;;;;;;;;;21.20;42.70;;;;;;5118056;27;19913;-60
2021/12/18 05:32:45;;;;;;;;;;;21.20;42.70;;;;;;5136255;27;19907;-60
2021/12/18 05:35:10;;;;;;;;;;;21.20;42.60;;;;;;5100798;27;20010;-60
2021/12/18 05:37:51;;;;;;;;;;;21.30;42.60;;;;;;5136201;27;19907;-60
2021/12/18 05:40:18;;;;;;;;;;;21.20;42.60;;;;;;5136294;27;19922;-60
2021/12/18 05:42:45;;;;;;;;;;;21.20;42.60;;;;;;5136061;27;19908;-60
2021/12/18 05:45:10;;;;;;;;;;;21.30;42.60;;;;;;5135997;27;19908;-59
2021/12/18 05:47:36;;;;;;;;;;;21.30;42.50;;;;;;5135977;27;19953;-60
2021/12/18 05:50:02;;;;;;;;;;;21.30;42.50;;;;;;5135929;27;20021;-60
2021/12/18 05:52:28;;;;;;;;;;;21.30;42.50;;;;;;5136131;27;20453;-60
2021/12/18 05:54:53;;;;;;;;;;;21.40;42.50;;;;;;5135457;27;19951;-60
2021/12/18 05:57:19;;;;;;;;;;;21.30;42.50;;;;;;5135787;27;20278;-60
2021/12/18 05:59:44;;;;;;;;;;;21.40;42.50;;;;;;5135433;27;19954;-60
2021/12/18 06:02:10;;;;;;;;;;;21.40;42.50;;;;;;5135629;27;19908;-60
2021/12/18 06:04:35;;;;;;;;;;;21.40;42.50;;;;;;5135680;27;19952;-60
2021/12/18 06:07:05;;;;;;;;;;;21.40;42.50;;;;;;5135786;27;19912;-60
2021/12/18 06:09:31;;;;;;;;;;;21.40;42.50;;;;;;5135463;27;19907;-60
2021/12/18 06:11:57;;;;;;;;;;;21.40;42.50;;;;;;5135431;27;19914;-60
2021/12/18 06:14:24;;;;;;;;;;;21.40;42.50;;;;;;5135429;27;19942;-59
2021/12/18 06:16:49;;;;;;;;;;;21.40;42.50;;;;;;5135397;27;19907;-60
2021/12/18 06:19:15;;;;;;;;;;;21.40;42.60;;;;;;5135301;27;20002;-59
2021/12/18 06:21:40;;;;;;;;;;;21.40;42.50;;;;;;5135326;27;19907;-60
2021/12/18 06:24:05;;;;;;;;;;;21.40;42.50;;;;;;5135140;27;19914;-59
2021/12/18 06:26:31;;;;;;;;;;;21.40;42.60;;;;;;5135223;27;19911;-60
2021/12/18 06:28:56;;;;;;;;;;;21.40;42.50;;;;;;5135411;27;20002;-60
2021/12/18 06:31:22;;;;;;;;;;;21.50;42.60;;;;;;5135140;27;20381;-60
2021/12/18 06:33:47;;;;;;;;;;;21.40;42.60;;;;;;5135089;27;20199;-60
2021/12/18 06:36:13;;;;;;;;;;;21.50;42.50;;;;;;5135051;27;19962;-60
2021/12/18 06:38:38;;;;;;;;;;;21.50;42.50;;;;;;5134820;27;19969;-60
2021/12/18 06:41:04;;;;;;;;;;;21.50;42.50;;;;;;5134956;27;19933;-60
2021/12/18 06:43:29;;;;;;;;;;;21.50;42.50;;;;;;5134922;27;19911;-60
2021/12/18 06:45:55;;;;;;;;;;;21.50;42.60;;;;;;5134961;27;19939;-60
2021/12/18 06:48:20;;;;;;;;;;;21.50;42.50;;;;;;5134955;27;20374;-60
2021/12/18 06:50:46;;;;;;;;;;;21.50;42.50;;;;;;5134742;27;20270;-60
2021/12/18 06:53:11;;;;;;;;;;;21.50;42.50;;;;;;5134699;27;20022;-60
2021/12/18 06:55:36;;;;;;;;;;;21.50;42.60;;;;;;5134678;27;19908;-60
2021/12/18 06:58:02;;;;;;;;;;;21.50;42.50;;;;;;5134565;27;20273;-60
2021/12/18 07:00:28;;;;;;;;;;;21.50;42.60;;;;;;5134338;27;20316;-60
2021/12/18 07:02:54;;;;;;;;;;;21.50;42.50;;;;;;5134589;27;20317;-60
2021/12/18 07:05:19;;;;;;;;;;;21.50;42.50;;;;;;5134891;27;19908;-60
2021/12/18 07:07:44;;;;;;;;;;;21.50;42.50;;;;;;5134113;27;20282;-60
2021/12/18 07:10:11;;;;;;;;;;;21.50;42.50;;;;;;5134524;27;19915;-60
2021/12/18 07:12:36;;;;;;;;;;;21.60;42.50;;;;;;5134448;27;19912;-60
2021/12/18 07:15:03;;;;;;;;;;;21.50;42.60;;;;;;5134387;27;19994;-60
2021/12/18 07:17:28;;;;;;;;;;;21.50;42.60;;;;;;5134341;27;19907;-59
2021/12/18 07:19:54;;;;;;;;;;;21.50;42.50;;;;;;5134543;27;19916;-60
2021/12/18 07:22:19;;;;;;;;;;;21.50;42.50;;;;;;5134271;28;19914;-60
2021/12/18 07:24:44;;;;;;;;;;;21.50;42.60;;;;;;5134380;28;19915;-60
2021/12/18 07:27:10;;;;;;;;;;;21.60;42.50;;;;;;5134340;28;20286;-60
2021/12/18 07:29:35;;;;;;;;;;;21.60;42.50;;;;;;5134309;28;19908;-60
2021/12/18 07:32:01;;;;;;;;;;;21.60;42.50;;;;;;5134216;28;19999;-60
2021/12/18 07:34:26;;;;;;;;;;;21.60;42.50;;;;;;5134266;28;19908;-60
2021/12/18 07:36:52;;;;;;;;;;;21.60;42.50;;;;;;5134242;28;20002;-60
2021/12/18 07:39:17;;;;;;;;;;;21.60;42.60;;;;;;5134145;28;20324;-60
2021/12/18 07:41:43;;;;;;;;;;;21.60;42.50;;;;;;5115742;28;19922;-60
2021/12/18 07:44:09;;;;;;;;;;;21.60;42.50;;;;;;5134129;28;20275;-60
2021/12/18 07:46:35;;;;;;;;;;;21.60;42.50;;;;;;5134114;28;20005;-60
2021/12/18 07:49:00;;;;;;;;;;;21.70;42.50;;;;;;5134097;28;19914;-60
2021/12/18 07:51:26;;;;;;;;;;;21.60;42.50;;;;;;5133949;28;19911;-60
2021/12/18 07:53:51;;;;;;;;;;;21.60;42.50;;;;;;5133919;28;20381;-60
2021/12/18 07:56:17;;;;;;;;;;;21.60;42.50;;;;;;5134127;28;19969;-60
2021/12/18 07:58:42;;;;;;;;;;;21.60;42.50;;;;;;5133706;28;19918;-60
2021/12/18 08:01:08;;;;;;;;;;;21.70;42.50;;;;;;5133751;28;19926;-60
2021/12/18 08:03:33;;;;;;;;;;;21.70;42.60;;;;;;5133961;28;19907;-60
2021/12/18 08:05:59;;;;;;;;;;;21.70;42.50;;;;;;5133928;28;19986;-61
2021/12/18 08:08:24;;;;;;;;;;;21.70;42.50;;;;;;5134045;28;19912;-60
2021/12/18 08:10:50;;;;;;;;;;;21.70;42.50;;;;;;5133760;28;20393;-60
2021/12/18 08:13:15;;;;;;;;;;;21.70;42.60;;;;;;5115566;28;19908;-59
2021/12/18 08:15:41;;;;;;;;;;;21.70;42.50;;;;;;5133906;28;19911;-60
2021/12/18 08:18:09;;;;;;;;;;;21.70;42.50;;;;;;5135425;27;19907;-60
2021/12/18 08:20:35;;;;;;;;;;;21.70;42.50;;;;;;5137674;27;20354;-60
2021/12/18 08:23:01;;;;;;;;;;;21.70;42.50;;;;;;5137560;27;19943;-60
2021/12/18 08:25:27;;;;;;;;;;;21.70;42.50;;;;;;5137688;27;19952;-60
2021/12/18 08:27:55;;;;;;;;;;;21.70;42.50;;;;;;5137616;27;20001;-60
2021/12/18 08:30:21;;;;;;;;;;;21.70;42.50;;;;;;5137560;27;19908;-60
2021/12/18 08:32:46;;;;;;;;;;;21.70;42.50;;;;;;5137413;27;19907;-60
2021/12/18 08:35:12;;;;;;;;;;;21.70;42.50;;;;;;5137379;27;19916;-60
2021/12/18 08:37:37;;;;;;;;;;;21.70;42.50;;;;;;5118833;27;20423;-60
2021/12/18 08:40:03;;;;;;;;;;;21.70;42.50;;;;;;5118640;27;19915;-60
2021/12/18 08:42:28;;;;;;;;;;;21.70;42.50;;;;;;5137086;27;19907;-60
2021/12/18 08:44:54;;;;;;;;;;;21.70;42.50;;;;;;5137130;27;19914;-60
2021/12/18 08:47:19;;;;;;;;;;;21.70;42.50;;;;;;5137061;27;20404;-60
2021/12/18 08:49:45;;;;;;;;;;;21.80;42.50;;;;;;5137032;27;20330;-60
2021/12/18 08:52:11;;;;;;;;;;;21.70;42.50;;;;;;5137046;27;20349;-60
2021/12/18 08:54:36;;;;;;;;;;;21.80;42.50;;;;;;5136925;27;19914;-60
2021/12/18 08:57:02;;;;;;;;;;;21.80;42.50;;;;;;5118657;27;20006;-60
2021/12/18 08:59:27;;;;;;;;;;;21.80;42.50;;;;;;5136422;27;19919;-60
2021/12/18 09:01:53;;;;;;;;;;;21.80;42.50;;;;;;5136693;27;19915;-60
2021/12/18 09:04:18;;;;;;;;;;;21.80;42.50;;;;;;5118541;27;19911;-60
2021/12/18 09:06:43;;;;;;;;;;;21.80;42.50;;;;;;5136646;27;19956;-60
2021/12/18 09:09:09;;;;;;;;;;;21.80;42.40;;;;;;5118158;27;19990;-60
2021/12/18 09:11:34;;;;;;;;;;;21.80;42.40;;;;;;5136657;27;19947;-60
2021/12/18 09:14:02;;;;;;;;;;;21.80;42.40;;;;;;5136510;27;20279;-60
2021/12/18 09:16:28;;;;;;;;;;;21.80;42.40;;;;;;5118665;27;19930;-60
2021/12/18 09:18:53;;;;;;;;;;;21.80;42.40;;;;;;5136626;27;19915;-60
2021/12/18 09:21:20;;;;;;;;;;;21.80;42.40;;;;;;5136332;27;19935;-60
2021/12/18 09:23:45;;;;;;;;;;;21.80;42.40;;;;;;5118003;27;19998;-60
2021/12/18 09:26:11;;;;;;;;;;;21.80;42.40;;;;;;5136409;27;20399;-60
2021/12/18 09:28:36;;;;;;;;;;;21.80;42.40;;;;;;5136432;27;19908;-60
2021/12/18 09:31:02;;;;;;;;;;;21.90;42.40;;;;;;5135695;27;19914;-60
2021/12/18 09:33:27;;;;;;;;;;;21.80;42.40;;;;;;5136196;27;19949;-60
2021/12/18 09:35:53;;;;;;;;;;;21.80;42.40;;;;;;5136059;27;20369;-60
2021/12/18 09:38:18;;;;;;;;;;;21.90;42.40;;;;;;5136059;27;19907;-60
2021/12/18 09:40:44;;;;;;;;;;;21.80;42.40;;;;;;5135935;27;19916;-60
2021/12/18 09:43:09;;;;;;;;;;;21.90;42.40;;;;;;5136004;27;19914;-60
2021/12/18 09:45:34;;;;;;;;;;;21.90;42.40;;;;;;5136051;27;19908;-60
2021/12/18 09:48:00;;;;;;;;;;;21.90;42.40;;;;;;5136012;27;19946;-60
2021/12/18 09:50:27;;;;;;;;;;;21.80;42.30;;;;;;5135830;27;19946;-60
2021/12/18 09:52:53;;;;;;;;;;;21.90;42.40;;;;;;5135756;27;19907;-60
2021/12/18 09:55:19;;;;;;;;;;;21.90;42.40;;;;;;5135997;27;19907;-60
2021/12/18 09:57:45;;;;;;;;;;;21.90;42.40;;;;;;5117323;27;19958;-60
2021/12/18 10:00:12;;;;;;;;;;;21.80;42.40;;;;;;5135730;27;19924;-60
2021/12/18 10:02:39;;;;;;;;;;;21.90;42.40;;;;;;5135554;27;19908;-60
2021/12/18 10:05:04;;;;;;;;;;;21.90;42.30;;;;;;5135948;27;19918;-61
2021/12/18 10:07:30;;;;;;;;;;;21.90;42.40;;;;;;5135874;27;19908;-60
2021/12/18 10:09:57;;;;;;;;;;;21.90;42.30;;;;;;5117062;27;20362;-60
2021/12/18 10:12:24;;;;;;;;;;;21.90;42.30;;;;;;5135394;27;19908;-60
2021/12/18 10:14:54;;;;;;;;;;;21.90;42.30;;;;;;5135660;27;19914;-60
2021/12/18 10:17:22;;;;;;;;;;;21.90;42.40;;;;;;5116822;27;19907;-60
2021/12/18 10:19:49;;;;;;;;;;;21.90;42.30;;;;;;5135328;27;19919;-60
2021/12/18 10:22:14;;;;;;;;;;;21.90;42.30;;;;;;5135275;27;20002;-60
2021/12/18 10:24:41;;;;;;;;;;;21.90;42.30;;;;;;5135468;27;19976;-60
2021/12/18 10:27:16;;;;;;;;;;;21.90;42.30;;;;;;5135041;27;20363;-60
2021/12/18 10:29:41;;;;;;;;;;;21.90;42.30;;;;;;5135082;27;20381;-60
2021/12/18 10:32:09;;;;;;;;;;;21.90;42.30;;;;;;5135045;27;19915;-60
2021/12/18 10:34:34;;;;;;;;;;;22.00;42.30;;;;;;5135016;27;19908;-59
2021/12/18 10:37:12;;;;;;;;;;;21.90;42.30;;;;;;5134884;27;19952;-60
2021/12/18 10:39:39;;;;;;;;;;;22.00;42.30;;;;;;5134893;27;19934;-60
2021/12/18 10:42:18;;;;;;;;;;;22.00;42.30;;;;;;5134058;27;19908;-60
2021/12/18 10:44:55;;;;;;;;;;;22.00;42.30;;;;;;5134900;27;19908;-60
2021/12/18 10:47:21;;;;;;;;;;;21.90;42.30;;;;;;5134894;27;19947;-60
2021/12/18 10:49:47;;;;;;;;;;;22.00;42.20;;;;;;5134888;27;20351;-60
2021/12/18 10:52:12;;;;;;;;;;;21.90;42.30;;;;;;5116645;27;20269;-60
2021/12/18 10:54:38;;;;;;;;;;;22.00;42.20;;;;;;5134734;27;19996;-60
2021/12/18 10:57:04;;;;;;;;;;;22.00;42.20;;;;;;5134570;27;19907;-60
2021/12/18 10:59:31;;;;;;;;;;;22.00;42.20;;;;;;5134373;27;19919;-59
2021/12/18 11:01:58;;;;;;;;;;;22.00;42.20;;;;;;5134538;27;19961;-59
2021/12/18 11:04:28;;;;;;;;;;;22.00;42.20;;;;;;5115874;27;19914;-59
2021/12/18 11:06:55;;;;;;;;;;;22.00;42.20;;;;;;5134494;27;19942;-60
2021/12/18 11:09:32;;;;;;;;;;;22.00;42.20;;;;;;5134380;27;19907;-59
2021/12/18 11:14:34;;;;;;;;;;;22.00;42.20;;;;;;5134504;27;20355;-59
2021/12/18 11:17:01;;;;;;;;;;;22.00;42.20;;;;;;5134155;27;19908;-59
2021/12/18 11:19:27;;;;;;;;;;;22.00;42.20;;;;;;5134337;27;19972;-59
2021/12/18 11:21:54;;;;;;;;;;;22.00;42.20;;;;;;5134261;27;19907;-59
2021/12/18 11:24:21;;;;;;;;;;;22.00;42.20;;;;;;5115986;28;19915;-58
2021/12/18 11:26:58;;;;;;;;;;;22.00;42.20;;;;;;5134261;28;20382;-59
2021/12/18 11:29:28;;;;;;;;;;;22.00;42.20;;;;;;5134166;28;20002;-59
2021/12/18 11:31:54;;;;;;;;;;;22.00;42.20;;;;;;5116117;28;19907;-59
2021/12/18 11:34:20;;;;;;;;;;;22.00;42.20;;;;;;5134184;28;19919;-59
2021/12/18 11:36:47;;;;;;;;;;;22.00;42.20;;;;;;5134370;28;19943;-59
2021/12/18 11:39:14;;;;;;;;;;;22.00;42.20;;;;;;5134040;27;19915;-59
2021/12/18 11:41:40;;;;;;;;;;;22.00;42.10;;;;;;5134039;27;19957;-59
2021/12/18 11:44:25;;;;;;;;;;;22.00;42.10;;;;;;5134211;28;19907;-59
2021/12/18 11:46:50;;;;;;;;;;;22.00;42.20;;;;;;5134103;28;19960;-59
2021/12/18 11:49:16;;;;;;;;;;;22.00;42.10;;;;;;5134045;28;20002;-59
2021/12/18 11:51:55;;;;;;;;;;;22.00;42.10;;;;;;5134071;28;19919;-59
2021/12/18 11:54:39;;;;;;;;;;;22.00;42.10;;;;;;5137562;27;20001;-60
2021/12/18 11:57:05;;;;;;;;;;;22.00;42.20;;;;;;5137999;27;19907;-60
2021/12/18 11:59:41;;;;;;;;;;;22.00;42.10;;;;;;5137700;27;20012;-59
2021/12/18 12:02:07;;;;;;;;;;;22.00;42.10;;;;;;5137938;27;19969;-59
2021/12/18 12:04:51;;;;;;;;;;;22.00;42.10;;;;;;5137852;27;19908;-59
2021/12/18 12:07:21;;;;;;;;;;;22.00;42.10;;;;;;5137794;27;19915;-59
2021/12/18 12:10:06;;;;;;;;;;;22.00;42.10;;;;;;5137893;27;19907;-60
2021/12/18 12:12:51;;;;;;;;;;;22.00;42.10;;;;;;5119376;27;20350;-59
2021/12/18 12:15:18;;;;;;;;;;;22.00;42.10;;;;;;5136842;27;19907;-59
2021/12/18 12:17:52;;;;;;;;;;;22.00;42.10;;;;;;5137569;27;20010;-59
2021/12/18 12:20:31;;;;;;;;;;;22.00;42.10;;;;;;5137400;27;19941;-59
2021/12/18 12:23:00;;;;;;;;;;;22.00;42.10;;;;;;5119100;27;19952;-60
2021/12/18 12:25:39;;;;;;;;;;;22.00;42.10;;;;;;5118798;27;20307;-59
2021/12/18 12:28:07;;;;;;;;;;;22.00;42.10;;;;;;5137334;27;19947;-59
2021/12/18 12:30:32;;;;;;;;;;;22.00;42.10;;;;;;5137542;27;19919;-59
2021/12/18 12:32:59;;;;;;;;;;;22.00;42.10;;;;;;5137232;27;20366;-59
2021/12/18 12:35:25;;;;;;;;;;;22.00;42.10;;;;;;5137195;27;19907;-60
2021/12/18 12:37:51;;;;;;;;;;;22.00;42.10;;;;;;5137198;27;20383;-59
2021/12/18 12:40:20;;;;;;;;;;;22.00;42.10;;;;;;5118478;27;20010;-59
2021/12/18 12:43:04;;;;;;;;;;;22.00;42.10;;;;;;5136968;27;20368;-59
2021/12/18 12:45:35;;;;;;;;;;;22.00;42.10;;;;;;5136966;27;19914;-60
2021/12/18 12:48:01;;;;;;;;;;;22.00;42.10;;;;;;5136756;27;20363;-60
2021/12/18 12:50:27;;;;;;;;;;;22.00;42.00;;;;;;5136844;27;19952;-59
2021/12/18 12:52:57;;;;;;;;;;;22.00;42.00;;;;;;5136801;27;19907;-60
2021/12/18 12:55:25;;;;;;;;;;;22.00;42.00;;;;;;5136971;27;19908;-59
2021/12/18 12:58:01;;;;;;;;;;;22.00;42.00;;;;;;5136782;27;19907;-59
2021/12/18 13:00:27;;;;;;;;;;;22.00;42.00;;;;;;5136409;27;19925;-62
2021/12/18 13:02:57;;;;;;;;;;;22.00;42.10;;;;;;5136534;27;19908;-59
2021/12/18 13:05:23;;;;;;;;;;;22.00;42.00;;;;;;5135246;27;19912;-59
2021/12/18 13:07:53;;;;;;;;;;;22.00;42.10;;;;;;5136090;27;19907;-59
2021/12/18 13:10:29;;;;;;;;;;;22.00;42.00;;;;;;5136532;27;19907;-59
2021/12/18 13:12:56;;;;;;;;;;;22.00;42.00;;;;;;5136335;27;19918;-59
2021/12/18 13:15:23;;;;;;;;;;;22.00;42.00;;;;;;5136459;27;20295;-59
2021/12/18 13:18:03;;;;;;;;;;;22.00;42.00;;;;;;5136353;27;19994;-59
2021/12/18 13:20:29;;;;;;;;;;;22.00;42.00;;;;;;5136213;27;19915;-59
2021/12/18 13:22:54;;;;;;;;;;;22.00;42.00;;;;;;5136334;27;20002;-60
2021/12/18 13:25:20;;;;;;;;;;;22.00;42.00;;;;;;5136550;27;19908;-60
2021/12/18 13:28:02;;;;;;;;;;;22.00;42.00;;;;;;5136387;27;19934;-60
2021/12/18 13:30:28;;;;;;;;;;;22.00;42.00;;;;;;5136042;27;20379;-60
2021/12/18 13:32:53;;;;;;;;;;;22.00;42.00;;;;;;5136061;27;19912;-59
2021/12/18 13:35:19;;;;;;;;;;;22.00;42.00;;;;;;5136302;27;19907;-59
2021/12/18 13:37:57;;;;;;;;;;;22.00;41.90;;;;;;5135874;27;20354;-60
2021/12/18 13:40:23;;;;;;;;;;;22.00;41.90;;;;;;5117417;27;19915;-60
2021/12/18 13:43:02;;;;;;;;;;;22.00;41.90;;;;;;5135727;27;19931;-59
2021/12/18 13:45:27;;;;;;;;;;;22.00;41.90;;;;;;5135805;27;19911;-60
2021/12/18 13:47:53;;;;;;;;;;;22.00;41.90;;;;;;5135781;27;19914;-59
2021/12/18 13:50:20;;;;;;;;;;;22.00;41.90;;;;;;5135663;27;19998;-60
2021/12/18 13:52:49;;;;;;;;;;;22.00;41.90;;;;;;5135745;27;20380;-60
2021/12/18 13:55:23;;;;;;;;;;;22.00;41.90;;;;;;5135704;27;20385;-60
2021/12/18 13:58:03;;;;;;;;;;;22.00;41.90;;;;;;5136161;27;20266;-59
2021/12/18 14:00:43;;;;;;;;;;;22.00;41.90;;;;;;5113468;28;19924;-59
2021/12/18 14:03:15;;;;;;;;;;;22.00;41.90;;;;;;5115131;28;19908;-59
2021/12/18 14:05:41;;;;;;;;;;;22.00;41.90;;;;;;5115068;28;20535;-59
2021/12/18 14:08:07;;;;;;;;;;;22.00;41.80;;;;;;5114687;28;19934;-59
2021/12/18 14:10:33;;;;;;;;;;;22.00;41.80;;;;;;5114688;28;19912;-59
2021/12/18 14:13:00;;;;;;;;;;;22.00;41.80;;;;;;5114605;28;20275;-59
2021/12/18 14:15:25;;;;;;;;;;;22.00;41.80;;;;;;5114377;28;20317;-59
2021/12/18 14:17:51;;;;;;;;;;;22.00;41.80;;;;;;5114825;28;19908;-59
2021/12/18 14:20:16;;;;;;;;;;;22.00;41.80;;;;;;5114629;28;20377;-60
2021/12/18 14:22:42;;;;;;;;;;;22.00;41.80;;;;;;5114584;28;19919;-60
2021/12/18 14:25:15;;;;;;;;;;;22.00;41.80;;;;;;5114557;28;19907;-59
2021/12/18 14:27:42;;;;;;;;;;;22.00;41.80;;;;;;5114508;28;19998;-60
2021/12/18 14:30:21;;;;;;;;;;;22.00;41.80;;;;;;5114348;28;20248;-60
2021/12/18 14:32:47;;;;;;;;;;;22.00;41.80;;;;;;5114429;28;19997;-60
2021/12/18 14:35:15;;;;;;;;;;;22.00;41.80;;;;;;5114457;28;20290;-60
2021/12/18 14:37:54;;;;;;;;;;;22.00;41.80;;;;;;5113239;28;19914;-60
2021/12/18 14:40:21;;;;;;;;;;;22.00;41.80;;;;;;5114139;28;19916;-59
2021/12/18 14:42:58;;;;;;;;;;;22.00;41.80;;;;;;5114436;28;19908;-59
2021/12/18 14:45:25;;;;;;;;;;;22.00;41.80;;;;;;5114539;28;19998;-60
2021/12/18 14:47:54;;;;;;;;;;;22.00;41.70;;;;;;5114203;28;19914;-60
2021/12/18 14:50:21;;;;;;;;;;;22.00;41.80;;;;;;5114217;28;19943;-60
2021/12/18 14:53:06;;;;;;;;;;;22.00;41.70;;;;;;5114006;28;19915;-60
2021/12/18 14:55:31;;;;;;;;;;;22.00;41.70;;;;;;5113995;28;19914;-60
2021/12/18 14:58:10;;;;;;;;;;;22.00;41.80;;;;;;5113938;28;19994;-60
2021/12/18 15:00:56;;;;;;;;;;;22.00;41.80;;;;;;5128473;27;19959;-60